createdAt,value
2017-02-21T00:00:59.644Z,93.89
2017-02-21T00:02:00.176Z,93.94
2017-02-21T00:03:00.712Z,94.10
2017-02-21T00:04:01.241Z,94.07
2017-02-21T00:05:01.775Z,93.91
2017-02-21T00:06:02.305Z,93.91
2017-02-21T00:07:02.834Z,94.07
2017-02-21T00:08:03.363Z,94.12
2017-02-21T00:09:03.901Z,94.15
2017-02-21T00:10:04.431Z,94.12
2017-02-21T00:11:04.971Z,94.45
2017-02-21T00:12:05.502Z,94.48
2017-02-21T00:13:06.041Z,94.64
2017-02-21T00:14:06.567Z,94.69
2017-02-21T00:15:07.101Z,94.69
2017-02-21T00:16:07.641Z,94.61
2017-02-21T00:17:08.173Z,94.67
2017-02-21T00:18:08.720Z,94.88
2017-02-21T00:19:09.239Z,94.91
2017-02-21T00:20:09.777Z,94.88
2017-02-21T00:21:10.309Z,94.96
2017-02-21T00:22:10.842Z,94.93
2017-02-21T00:23:11.371Z,94.96
2017-02-21T00:24:11.903Z,95.01
2017-02-21T00:25:12.438Z,95.12
2017-02-21T00:26:12.973Z,95.01
2017-02-21T00:27:13.512Z,95.07
2017-02-21T00:28:14.030Z,95.20
2017-02-21T00:29:14.563Z,95.31
2017-02-21T00:30:15.096Z,95.45
2017-02-21T00:31:15.633Z,95.53
2017-02-21T00:32:16.160Z,95.58
2017-02-21T00:33:16.707Z,95.61
2017-02-21T00:34:17.227Z,95.66
2017-02-21T00:35:17.761Z,95.66
2017-02-21T00:36:18.295Z,95.72
2017-02-21T00:37:18.828Z,95.72
2017-02-21T00:38:19.364Z,95.75
2017-02-21T00:39:19.894Z,95.69
2017-02-21T00:40:20.421Z,95.75
2017-02-21T00:41:20.956Z,95.66
2017-02-21T00:42:21.488Z,95.80
2017-02-21T00:43:22.030Z,95.72
2017-02-21T00:44:22.552Z,95.80
2017-02-21T00:45:23.085Z,95.83
2017-02-21T00:46:23.613Z,95.85
2017-02-21T00:47:24.137Z,95.72
2017-02-21T00:48:24.675Z,95.83
2017-02-21T00:49:25.208Z,95.94
2017-02-21T00:50:25.732Z,95.98
2017-02-21T00:51:26.262Z,95.94
2017-02-21T00:52:26.944Z,95.91
2017-02-21T00:53:27.326Z,95.88
2017-02-21T00:54:27.864Z,95.88
2017-02-21T00:55:28.397Z,96.09
2017-02-21T00:56:28.927Z,96.15
2017-02-21T00:57:29.464Z,96.13
2017-02-21T00:58:30.003Z,96.17
2017-02-21T00:59:30.541Z,96.13
2017-02-21T01:00:31.221Z,96.09
2017-02-21T01:01:31.610Z,96.17
2017-02-21T01:02:32.146Z,96.28
2017-02-21T01:03:32.675Z,96.20
2017-02-21T01:04:33.204Z,96.15
2017-02-21T01:05:33.739Z,96.28
2017-02-21T01:06:34.265Z,96.42
2017-02-21T01:07:34.799Z,96.39
2017-02-21T01:08:35.333Z,96.50
2017-02-21T01:09:35.860Z,96.20
2017-02-21T01:10:36.391Z,96.13
2017-02-21T01:11:36.928Z,96.26
2017-02-21T01:12:37.457Z,96.26
2017-02-21T01:13:37.987Z,96.26
2017-02-21T01:14:38.526Z,96.28
2017-02-21T01:15:39.051Z,96.39
2017-02-21T01:16:39.589Z,96.31
2017-02-21T01:17:40.119Z,96.45
2017-02-21T01:18:40.650Z,96.53
2017-02-21T01:19:41.182Z,96.58
2017-02-21T01:20:41.713Z,96.66
2017-02-21T01:21:42.246Z,96.69
2017-02-21T01:22:42.778Z,96.74
2017-02-21T01:23:43.461Z,96.64
2017-02-21T01:24:43.844Z,96.61
2017-02-21T01:25:44.372Z,96.61
2017-02-21T01:26:44.911Z,96.55
2017-02-21T01:27:45.439Z,96.42
2017-02-21T01:28:45.970Z,96.47
2017-02-21T01:29:46.531Z,96.55
2017-02-21T01:30:47.036Z,96.55
2017-02-21T01:31:47.563Z,96.55
2017-02-21T01:32:48.100Z,96.53
2017-02-21T01:33:48.628Z,96.45
2017-02-21T01:34:49.157Z,96.45
2017-02-21T01:35:49.689Z,96.42
2017-02-21T01:36:50.220Z,96.36
2017-02-21T01:37:50.756Z,96.28
2017-02-21T01:38:51.287Z,96.15
2017-02-21T01:39:51.821Z,96.23
2017-02-21T01:40:52.365Z,96.31
2017-02-21T01:41:52.898Z,96.34
2017-02-21T01:42:53.437Z,96.34
2017-02-21T01:43:53.966Z,96.36
2017-02-21T01:44:54.508Z,96.58
2017-02-21T01:45:55.038Z,96.72
2017-02-21T01:46:55.568Z,96.64
2017-02-21T01:47:56.107Z,96.53
2017-02-21T01:48:56.636Z,96.55
2017-02-21T01:49:57.173Z,96.55
2017-02-21T01:50:57.703Z,96.61
2017-02-21T01:51:58.240Z,96.55
2017-02-21T01:52:58.763Z,96.58
2017-02-21T01:53:59.287Z,96.64
2017-02-21T01:54:59.826Z,96.64
2017-02-21T01:56:00.357Z,96.64
2017-02-21T01:57:00.890Z,96.64
2017-02-21T01:58:01.417Z,96.58
2017-02-21T01:59:01.957Z,96.53
2017-02-21T02:00:02.489Z,96.47
2017-02-21T02:01:03.016Z,96.77
2017-02-21T02:02:03.700Z,96.85
2017-02-21T02:03:04.082Z,97.07
2017-02-21T02:04:04.614Z,97.23
2017-02-21T02:05:05.148Z,97.12
2017-02-21T02:06:05.678Z,97.07
2017-02-21T02:07:06.213Z,97.07
2017-02-21T02:08:06.747Z,97.07
2017-02-21T02:09:07.276Z,97.07
2017-02-21T02:10:07.810Z,97.02
2017-02-21T02:11:08.341Z,97.07
2017-02-21T02:12:08.876Z,97.18
2017-02-21T02:13:09.405Z,97.12
2017-02-21T02:14:09.935Z,97.07
2017-02-21T02:15:10.469Z,97.07
2017-02-21T02:16:11.010Z,97.07
2017-02-21T02:17:11.541Z,97.15
2017-02-21T02:18:12.063Z,97.18
2017-02-21T02:19:12.591Z,97.18
2017-02-21T02:20:13.127Z,97.18
2017-02-21T02:21:13.663Z,97.12
2017-02-21T02:22:14.195Z,97.26
2017-02-21T02:23:14.735Z,97.12
2017-02-21T02:24:15.271Z,97.21
2017-02-21T02:25:15.809Z,97.28
2017-02-21T02:26:16.341Z,97.28
2017-02-21T02:27:16.876Z,97.39
2017-02-21T02:28:17.405Z,97.47
2017-02-21T02:29:17.945Z,97.34
2017-02-21T02:30:18.478Z,97.15
2017-02-21T02:31:19.010Z,97.07
2017-02-21T02:32:19.545Z,96.69
2017-02-21T02:33:20.072Z,96.64
2017-02-21T02:34:20.603Z,96.66
2017-02-21T02:35:21.138Z,96.47
2017-02-21T02:36:21.670Z,96.34
2017-02-21T02:37:22.199Z,95.69
2017-02-21T02:38:22.734Z,95.69
2017-02-21T02:39:23.267Z,95.66
2017-02-21T02:40:23.798Z,95.53
2017-02-21T02:41:24.331Z,95.75
2017-02-21T02:42:24.865Z,95.77
2017-02-21T02:43:25.395Z,95.50
2017-02-21T02:44:25.920Z,95.04
2017-02-21T02:45:26.463Z,95.15
2017-02-21T02:46:26.997Z,95.12
2017-02-21T02:47:27.521Z,94.93
2017-02-21T02:48:28.057Z,95.04
2017-02-21T02:49:28.732Z,95.15
2017-02-21T02:50:29.112Z,95.20
2017-02-21T02:51:29.651Z,95.20
2017-02-21T02:52:30.332Z,95.18
2017-02-21T02:53:30.716Z,95.01
2017-02-21T02:54:31.256Z,94.80
2017-02-21T02:55:31.780Z,95.07
2017-02-21T02:56:32.311Z,95.15
2017-02-21T02:57:32.845Z,95.26
2017-02-21T02:58:33.377Z,95.31
2017-02-21T02:59:33.904Z,95.34
2017-02-21T03:00:34.459Z,95.12
2017-02-21T03:01:34.969Z,95.20
2017-02-21T03:02:35.498Z,95.18
2017-02-21T03:03:36.033Z,95.20
2017-02-21T03:04:36.717Z,95.26
2017-02-21T03:05:37.107Z,95.28
2017-02-21T03:06:37.642Z,95.37
2017-02-21T03:07:38.172Z,95.37
2017-02-21T03:08:38.708Z,95.42
2017-02-21T03:09:39.241Z,95.61
2017-02-21T03:10:39.773Z,95.64
2017-02-21T03:11:40.306Z,95.58
2017-02-21T03:12:40.833Z,95.64
2017-02-21T03:13:41.372Z,95.66
2017-02-21T03:14:41.916Z,94.67
2017-02-21T03:15:42.433Z,94.02
2017-02-21T03:16:42.965Z,93.62
2017-02-21T03:17:43.496Z,93.24
2017-02-21T03:18:44.179Z,93.18
2017-02-21T03:19:44.560Z,92.35
2017-02-21T03:20:45.091Z,92.81
2017-02-21T03:21:45.622Z,92.51
2017-02-21T03:22:46.151Z,91.73
2017-02-21T03:23:46.686Z,91.09
2017-02-21T03:24:47.368Z,90.31
2017-02-21T03:25:47.750Z,90.36
2017-02-21T03:26:48.285Z,90.23
2017-02-21T03:27:48.819Z,90.28
2017-02-21T03:28:49.495Z,90.45
2017-02-21T03:29:49.877Z,90.47
2017-02-21T03:30:50.410Z,91.11
2017-02-21T03:31:50.943Z,90.45
2017-02-21T03:32:51.474Z,90.42
2017-02-21T03:33:52.007Z,89.80
2017-02-21T03:34:52.543Z,89.29
2017-02-21T03:35:53.074Z,89.14
2017-02-21T03:36:53.754Z,89.45
2017-02-21T03:37:54.139Z,89.29
2017-02-21T03:38:54.672Z,89.40
2017-02-21T03:39:55.202Z,89.03
2017-02-21T03:40:55.733Z,88.73
2017-02-21T03:41:56.264Z,89.35
2017-02-21T03:42:56.798Z,89.11
2017-02-21T03:43:57.328Z,88.97
2017-02-21T03:44:57.857Z,89.54
2017-02-21T03:45:58.398Z,88.50
2017-02-21T03:46:58.933Z,89.19
2017-02-21T03:47:59.468Z,89.27
2017-02-21T03:49:00.152Z,89.35
2017-02-21T03:50:00.535Z,88.04
2017-02-21T03:51:01.069Z,88.57
2017-02-21T03:52:01.599Z,88.60
2017-02-21T03:53:02.282Z,89.06
2017-02-21T03:54:02.670Z,89.08
2017-02-21T03:55:03.227Z,89.37
2017-02-21T03:56:03.735Z,89.40
2017-02-21T03:57:04.269Z,88.97
2017-02-21T03:58:04.802Z,89.24
2017-02-21T03:59:05.344Z,89.51
2017-02-21T04:00:05.861Z,88.01
2017-02-21T04:01:06.393Z,87.48
2017-02-21T04:02:06.930Z,86.65
2017-02-21T04:03:07.463Z,87.34
2017-02-21T04:04:07.993Z,87.00
2017-02-21T04:05:08.521Z,86.71
2017-02-21T04:06:09.063Z,86.84
2017-02-21T04:07:09.589Z,86.94
2017-02-21T04:08:10.128Z,86.76
2017-02-21T04:09:10.658Z,86.52
2017-02-21T04:10:11.192Z,87.34
2017-02-21T04:11:11.722Z,86.73
2017-02-21T04:12:12.256Z,87.45
2017-02-21T04:13:12.790Z,87.45
2017-02-21T04:14:13.323Z,87.08
2017-02-21T04:15:13.854Z,86.81
2017-02-21T04:16:14.397Z,86.87
2017-02-21T04:17:14.927Z,87.05
2017-02-21T04:18:15.454Z,87.10
2017-02-21T04:19:16.133Z,87.88
2017-02-21T04:20:16.521Z,86.68
2017-02-21T04:21:17.062Z,85.88
2017-02-21T04:22:17.589Z,85.30
2017-02-21T04:23:18.120Z,86.01
2017-02-21T04:24:18.653Z,85.83
2017-02-21T04:25:19.181Z,85.08
2017-02-21T04:26:19.717Z,85.48
2017-02-21T04:27:20.253Z,84.95
2017-02-21T04:28:20.785Z,84.31
2017-02-21T04:29:21.322Z,85.24
2017-02-21T04:30:21.859Z,84.50
2017-02-21T04:31:22.395Z,85.35
2017-02-21T04:32:22.921Z,85.30
2017-02-21T04:33:23.453Z,83.78
2017-02-21T04:34:23.988Z,84.89
2017-02-21T04:35:24.516Z,85.08
2017-02-21T04:36:25.053Z,85.24
2017-02-21T04:37:25.587Z,85.30
2017-02-21T04:38:26.122Z,85.56
2017-02-21T04:39:26.652Z,85.85
2017-02-21T04:40:27.330Z,86.12
2017-02-21T04:41:27.716Z,85.75
2017-02-21T04:42:28.394Z,85.61
2017-02-21T04:43:28.778Z,85.56
2017-02-21T04:44:29.311Z,85.56
2017-02-21T04:45:29.848Z,84.58
2017-02-21T04:46:30.527Z,85.48
2017-02-21T04:47:30.906Z,84.47
2017-02-21T04:48:31.447Z,84.79
2017-02-21T04:49:31.972Z,85.05
2017-02-21T04:50:32.499Z,83.99
2017-02-21T04:51:33.032Z,84.20
2017-02-21T04:52:33.569Z,85.13
2017-02-21T04:53:34.101Z,84.31
2017-02-21T04:54:34.630Z,84.63
2017-02-21T04:55:35.162Z,85.08
2017-02-21T04:56:35.695Z,84.28
2017-02-21T04:57:36.231Z,84.05
2017-02-21T04:58:36.773Z,85.16
2017-02-21T04:59:37.286Z,85.11
2017-02-21T05:00:37.829Z,83.86
2017-02-21T05:01:38.352Z,83.78
2017-02-21T05:02:38.895Z,84.31
2017-02-21T05:03:39.425Z,84.36
2017-02-21T05:04:39.956Z,84.20
2017-02-21T05:05:40.494Z,83.78
2017-02-21T05:06:41.035Z,84.74
2017-02-21T05:07:41.562Z,85.21
2017-02-21T05:08:42.100Z,85.13
2017-02-21T05:09:42.629Z,85.53
2017-02-21T05:10:43.170Z,85.30
2017-02-21T05:11:43.707Z,84.34
2017-02-21T05:12:44.243Z,85.00
2017-02-21T05:13:44.771Z,84.31
2017-02-21T05:14:45.300Z,84.84
2017-02-21T05:15:45.982Z,84.60
2017-02-21T05:16:46.365Z,84.39
2017-02-21T05:17:46.897Z,85.08
2017-02-21T05:18:47.431Z,84.05
2017-02-21T05:19:47.963Z,84.47
2017-02-21T05:20:48.497Z,84.58
2017-02-21T05:21:49.037Z,84.44
2017-02-21T05:22:49.564Z,84.34
2017-02-21T05:23:50.119Z,85.00
2017-02-21T05:24:50.625Z,85.24
2017-02-21T05:25:51.161Z,83.99
2017-02-21T05:26:51.694Z,83.73
2017-02-21T05:27:52.226Z,84.58
2017-02-21T05:28:52.758Z,84.42
2017-02-21T05:29:53.291Z,83.97
2017-02-21T05:30:53.824Z,84.50
2017-02-21T05:31:54.363Z,84.52
2017-02-21T05:32:54.891Z,84.20
2017-02-21T05:33:55.423Z,84.39
2017-02-21T05:34:55.952Z,83.97
2017-02-21T05:35:56.483Z,84.09
2017-02-21T05:36:57.016Z,83.70
2017-02-21T05:37:57.548Z,84.31
2017-02-21T05:38:58.081Z,83.81
2017-02-21T05:39:58.615Z,83.54
2017-02-21T05:40:59.143Z,83.86
2017-02-21T05:41:59.676Z,83.75
2017-02-21T05:43:00.207Z,83.62
2017-02-21T05:44:00.740Z,82.77
2017-02-21T05:45:01.290Z,82.67
2017-02-21T05:46:01.961Z,82.27
2017-02-21T05:47:02.342Z,82.67
2017-02-21T05:48:02.876Z,82.88
2017-02-21T05:49:03.410Z,82.77
2017-02-21T05:50:03.948Z,82.21
2017-02-21T05:51:04.478Z,82.72
2017-02-21T05:52:05.011Z,83.04
2017-02-21T05:53:05.546Z,83.78
2017-02-21T05:54:06.086Z,81.42
2017-02-21T05:55:06.615Z,81.48
2017-02-21T05:56:07.182Z,82.06
2017-02-21T05:57:07.676Z,80.81
2017-02-21T05:58:08.357Z,81.16
2017-02-21T05:59:08.741Z,80.57
2017-02-21T06:00:09.275Z,81.42
2017-02-21T06:01:09.801Z,79.55
2017-02-21T06:02:10.329Z,80.29
2017-02-21T06:03:10.871Z,80.02
2017-02-21T06:04:11.546Z,79.94
2017-02-21T06:05:11.928Z,79.91
2017-02-21T06:06:12.459Z,80.41
2017-02-21T06:07:12.994Z,80.05
2017-02-21T06:08:13.525Z,81.13
2017-02-21T06:09:14.057Z,80.05
2017-02-21T06:10:14.589Z,79.94
2017-02-21T06:11:15.121Z,80.26
2017-02-21T06:12:15.653Z,80.52
2017-02-21T06:13:16.183Z,79.31
2017-02-21T06:14:16.730Z,79.75
2017-02-21T06:15:17.397Z,79.17
2017-02-21T06:16:17.787Z,78.54
2017-02-21T06:17:18.315Z,79.33
2017-02-21T06:18:18.850Z,78.89
2017-02-21T06:19:19.376Z,79.05
2017-02-21T06:20:19.908Z,79.15
2017-02-21T06:21:20.434Z,79.31
2017-02-21T06:22:20.966Z,79.91
2017-02-21T06:23:21.500Z,79.99
2017-02-21T06:24:22.042Z,79.97
2017-02-21T06:25:22.561Z,79.02
2017-02-21T06:26:23.093Z,79.52
2017-02-21T06:27:23.637Z,79.36
2017-02-21T06:28:24.164Z,79.31
2017-02-21T06:29:24.693Z,79.36
2017-02-21T06:30:25.236Z,80.33
2017-02-21T06:31:25.761Z,80.39
2017-02-21T06:32:26.296Z,79.65
2017-02-21T06:33:26.834Z,79.75
2017-02-21T06:34:27.369Z,79.49
2017-02-21T06:35:27.907Z,78.97
2017-02-21T06:36:28.474Z,79.39
2017-02-21T06:37:28.973Z,78.86
2017-02-21T06:38:29.500Z,78.94
2017-02-21T06:39:30.033Z,78.81
2017-02-21T06:41:31.092Z,78.54
2017-02-21T06:42:31.622Z,79.02
2017-02-21T06:43:32.154Z,79.13
2017-02-21T06:44:32.835Z,78.59
2017-02-21T06:45:33.216Z,78.44
2017-02-21T06:46:33.754Z,79.79
2017-02-21T06:47:34.282Z,79.17
2017-02-21T06:48:34.817Z,79.60
2017-02-21T06:49:35.342Z,80.02
2017-02-21T06:50:35.874Z,79.68
2017-02-21T06:51:36.410Z,80.36
2017-02-21T06:52:37.091Z,79.97
2017-02-21T06:53:37.481Z,79.07
2017-02-21T06:54:38.007Z,78.78
2017-02-21T06:55:38.538Z,79.89
2017-02-21T06:56:39.071Z,79.23
2017-02-21T06:57:39.607Z,79.65
2017-02-21T06:58:40.131Z,79.75
2017-02-21T06:59:40.667Z,79.47
2017-02-21T07:00:41.196Z,78.39
2017-02-21T07:01:41.725Z,79.10
2017-02-21T07:02:42.409Z,78.47
2017-02-21T07:03:42.787Z,78.05
2017-02-21T07:04:43.317Z,78.49
2017-02-21T07:05:43.849Z,78.86
2017-02-21T07:06:44.379Z,78.70
2017-02-21T07:07:45.054Z,78.97
2017-02-21T07:08:45.595Z,78.83
2017-02-21T07:09:45.981Z,78.78
2017-02-21T07:10:46.510Z,79.63
2017-02-21T07:11:47.042Z,76.44
2017-02-21T07:12:47.729Z,77.91
2017-02-21T07:13:48.111Z,77.44
2017-02-21T07:14:48.652Z,77.44
2017-02-21T07:15:49.188Z,76.81
2017-02-21T07:16:49.727Z,76.83
2017-02-21T07:17:50.259Z,76.73
2017-02-21T07:18:50.836Z,77.94
2017-02-21T07:19:51.337Z,76.91
2017-02-21T07:20:51.868Z,77.65
2017-02-21T07:21:52.710Z,78.07
2017-02-21T07:22:52.943Z,77.17
2017-02-21T07:23:53.465Z,77.75
2017-02-21T07:24:53.999Z,77.78
2017-02-21T07:25:54.544Z,76.89
2017-02-21T07:26:55.060Z,77.39
2017-02-21T07:27:55.597Z,77.09
2017-02-21T07:28:56.136Z,77.07
2017-02-21T07:29:56.660Z,77.20
2017-02-21T07:30:57.192Z,77.51
2017-02-21T07:31:57.730Z,77.15
2017-02-21T07:32:58.252Z,76.70
2017-02-21T07:33:58.788Z,77.41
2017-02-21T07:34:59.357Z,76.97
2017-02-21T07:35:59.851Z,78.59
2017-02-21T07:37:00.383Z,78.12
2017-02-21T07:38:00.920Z,77.41
2017-02-21T07:39:01.448Z,77.67
2017-02-21T07:40:02.013Z,77.44
2017-02-21T07:41:02.511Z,78.07
2017-02-21T07:42:03.044Z,77.89
2017-02-21T07:43:03.574Z,77.28
2017-02-21T07:44:04.103Z,77.70
2017-02-21T07:45:04.633Z,78.33
2017-02-21T07:46:05.165Z,78.78
2017-02-21T07:47:05.698Z,77.97
2017-02-21T07:48:06.229Z,78.25
2017-02-21T07:49:06.787Z,77.17
2017-02-21T07:50:07.283Z,77.47
2017-02-21T07:51:07.821Z,76.97
2017-02-21T07:52:08.355Z,77.78
2017-02-21T07:53:08.889Z,77.97
2017-02-21T07:54:09.423Z,78.01
2017-02-21T07:55:09.956Z,78.65
2017-02-21T07:56:10.494Z,78.12
2017-02-21T07:57:11.028Z,77.67
2017-02-21T07:58:11.566Z,77.25
2017-02-21T07:59:12.106Z,77.09
2017-02-21T08:00:12.634Z,76.91
2017-02-21T08:01:13.170Z,77.25
2017-02-21T08:02:13.701Z,78.07
2017-02-21T08:03:14.233Z,77.94
2017-02-21T08:04:14.910Z,78.12
2017-02-21T08:05:15.289Z,75.84
2017-02-21T08:06:15.830Z,76.94
2017-02-21T08:07:16.357Z,76.97
2017-02-21T08:08:16.892Z,77.39
2017-02-21T08:09:17.428Z,77.44
2017-02-21T08:10:17.975Z,77.41
2017-02-21T08:11:18.487Z,76.70
2017-02-21T08:12:19.026Z,77.51
2017-02-21T08:13:19.559Z,77.02
2017-02-21T08:14:20.090Z,76.83
2017-02-21T08:15:20.619Z,76.83
2017-02-21T08:16:21.150Z,76.73
2017-02-21T08:17:21.678Z,76.89
2017-02-21T08:18:22.208Z,76.52
2017-02-21T08:19:22.751Z,76.18
2017-02-21T08:20:23.279Z,77.91
2017-02-21T08:21:23.810Z,77.44
2017-02-21T08:22:24.342Z,77.23
2017-02-21T08:23:24.869Z,77.36
2017-02-21T08:24:25.402Z,76.52
2017-02-21T08:25:25.932Z,76.86
2017-02-21T08:26:26.465Z,76.54
2017-02-21T08:27:27.005Z,75.92
2017-02-21T08:28:27.527Z,76.12
2017-02-21T08:29:28.056Z,76.07
2017-02-21T08:31:29.117Z,76.65
2017-02-21T08:32:29.648Z,76.52
2017-02-21T08:33:30.333Z,75.62
2017-02-21T08:34:30.717Z,75.92
2017-02-21T08:35:31.396Z,76.97
2017-02-21T08:36:31.779Z,76.81
2017-02-21T08:37:32.314Z,76.26
2017-02-21T08:38:32.848Z,74.97
2017-02-21T08:39:33.383Z,75.49
2017-02-21T08:40:34.104Z,75.70
2017-02-21T08:41:34.457Z,75.26
2017-02-21T08:42:34.985Z,76.26
2017-02-21T08:43:35.529Z,76.44
2017-02-21T08:44:36.055Z,75.44
2017-02-21T08:45:36.580Z,75.49
2017-02-21T08:46:37.108Z,75.05
2017-02-21T08:47:37.643Z,74.52
2017-02-21T08:48:38.171Z,74.32
2017-02-21T08:49:38.719Z,74.34
2017-02-21T08:50:39.289Z,75.60
2017-02-21T08:51:39.774Z,72.72
2017-02-21T08:52:40.304Z,73.50
2017-02-21T08:53:40.843Z,73.82
2017-02-21T08:54:41.368Z,74.05
2017-02-21T08:55:41.902Z,73.27
2017-02-21T08:56:42.434Z,73.06
2017-02-21T08:57:43.117Z,73.06
2017-02-21T08:58:43.498Z,73.55
2017-02-21T08:59:44.034Z,73.82
2017-02-21T09:00:44.709Z,73.61
2017-02-21T09:01:45.104Z,74.84
2017-02-21T09:02:45.629Z,74.03
2017-02-21T09:03:46.169Z,72.69
2017-02-21T09:04:46.693Z,72.98
2017-02-21T09:05:47.521Z,73.45
2017-02-21T09:06:47.761Z,72.80
2017-02-21T09:07:48.287Z,72.64
2017-02-21T09:08:48.817Z,74.05
2017-02-21T09:09:49.346Z,71.67
2017-02-21T09:10:49.879Z,72.46
2017-02-21T09:11:50.407Z,71.75
2017-02-21T09:12:50.945Z,73.27
2017-02-21T09:13:51.472Z,71.94
2017-02-21T09:14:52.004Z,71.89
2017-02-21T09:15:52.532Z,71.75
2017-02-21T09:16:53.067Z,72.30
2017-02-21T09:17:53.606Z,71.75
2017-02-21T09:18:54.140Z,71.73
2017-02-21T09:19:54.675Z,70.50
2017-02-21T09:20:55.233Z,70.29
2017-02-21T09:21:55.746Z,70.66
2017-02-21T09:22:57.924Z,69.26
2017-02-21T09:23:56.810Z,69.12
2017-02-21T09:24:57.338Z,68.66
2017-02-21T09:25:57.876Z,69.34
2017-02-21T09:26:58.402Z,68.94
2017-02-21T09:27:58.939Z,70.01
2017-02-21T09:28:59.466Z,70.04
2017-02-21T09:30:00.007Z,70.24
2017-02-21T09:31:00.530Z,70.95
2017-02-21T09:32:01.213Z,69.85
2017-02-21T09:33:01.595Z,70.43
2017-02-21T09:34:02.128Z,70.82
2017-02-21T09:35:02.655Z,69.62
2017-02-21T09:36:03.186Z,70.82
2017-02-21T09:37:03.719Z,70.64
2017-02-21T09:38:04.408Z,70.56
2017-02-21T09:39:04.787Z,70.79
2017-02-21T09:40:05.313Z,70.53
2017-02-21T09:41:05.848Z,70.71
2017-02-21T09:42:06.377Z,70.74
2017-02-21T09:43:06.910Z,69.49
2017-02-21T09:44:07.448Z,69.82
2017-02-21T09:45:07.975Z,71.60
2017-02-21T09:46:08.510Z,71.31
2017-02-21T09:47:09.040Z,70.17
2017-02-21T09:48:09.571Z,71.18
2017-02-21T09:49:10.102Z,71.10
2017-02-21T09:50:10.636Z,71.00
2017-02-21T09:51:11.170Z,71.26
2017-02-21T09:52:11.701Z,71.36
2017-02-21T09:53:12.235Z,70.74
2017-02-21T09:54:12.767Z,70.97
2017-02-21T09:55:13.298Z,70.17
2017-02-21T09:56:13.978Z,71.39
2017-02-21T09:57:14.357Z,71.15
2017-02-21T09:58:15.038Z,70.40
2017-02-21T09:59:15.424Z,69.54
2017-02-21T10:00:15.964Z,68.14
2017-02-21T10:01:16.523Z,69.38
2017-02-21T10:02:17.031Z,68.99
2017-02-21T10:03:17.567Z,67.70
2017-02-21T10:04:18.099Z,67.39
2017-02-21T10:05:18.634Z,67.67
2017-02-21T10:06:19.171Z,66.97
2017-02-21T10:07:19.705Z,67.18
2017-02-21T10:08:20.236Z,67.25
2017-02-21T10:09:20.761Z,66.97
2017-02-21T10:10:21.446Z,66.97
2017-02-21T10:11:21.820Z,67.31
2017-02-21T10:12:22.361Z,67.00
2017-02-21T10:13:22.886Z,68.47
2017-02-21T10:14:23.414Z,67.39
2017-02-21T10:15:23.953Z,68.35
2017-02-21T10:16:24.478Z,67.77
2017-02-21T10:17:25.012Z,67.05
2017-02-21T10:18:25.544Z,67.46
2017-02-21T10:19:26.073Z,65.83
2017-02-21T10:20:26.608Z,66.27
2017-02-21T10:21:27.140Z,66.37
2017-02-21T10:22:27.671Z,66.50
2017-02-21T10:23:28.363Z,66.27
2017-02-21T10:24:28.732Z,67.18
2017-02-21T10:25:29.272Z,66.56
2017-02-21T10:26:29.802Z,67.80
2017-02-21T10:27:30.336Z,66.14
2017-02-21T10:28:30.863Z,66.79
2017-02-21T10:29:31.398Z,67.08
2017-02-21T10:30:31.931Z,66.43
2017-02-21T10:31:32.463Z,66.37
2017-02-21T10:32:32.996Z,67.16
2017-02-21T10:33:33.528Z,67.10
2017-02-21T10:34:34.086Z,67.33
2017-02-21T10:35:34.595Z,68.16
2017-02-21T10:36:35.121Z,68.60
2017-02-21T10:37:35.661Z,67.80
2017-02-21T10:38:36.188Z,68.08
2017-02-21T10:39:36.720Z,67.20
2017-02-21T10:40:37.253Z,68.19
2017-02-21T10:41:37.781Z,67.83
2017-02-21T10:42:38.317Z,67.88
2017-02-21T10:43:38.860Z,66.33
2017-02-21T10:44:39.394Z,67.57
2017-02-21T10:45:40.071Z,67.80
2017-02-21T10:46:40.452Z,67.64
2017-02-21T10:47:40.988Z,67.62
2017-02-21T10:48:41.532Z,67.10
2017-02-21T10:49:42.055Z,67.67
2017-02-21T10:50:42.583Z,67.57
2017-02-21T10:51:43.115Z,67.08
2017-02-21T10:52:43.646Z,67.05
2017-02-21T10:53:44.179Z,67.88
2017-02-21T10:54:44.707Z,67.67
2017-02-21T10:55:45.242Z,68.58
2017-02-21T10:56:45.776Z,68.40
2017-02-21T10:57:46.306Z,69.07
2017-02-21T10:58:46.839Z,69.30
2017-02-21T10:59:47.368Z,69.02
2017-02-21T11:00:47.942Z,69.20
2017-02-21T11:01:48.436Z,69.75
2017-02-21T11:02:48.973Z,68.35
2017-02-21T11:03:49.503Z,69.51
2017-02-21T11:04:50.184Z,69.44
2017-02-21T11:05:50.561Z,68.68
2017-02-21T11:06:51.093Z,68.58
2017-02-21T11:07:51.631Z,68.87
2017-02-21T11:08:52.309Z,69.30
2017-02-21T11:09:52.691Z,69.28
2017-02-21T11:10:53.227Z,66.45
2017-02-21T11:11:53.760Z,67.25
2017-02-21T11:12:54.295Z,67.02
2017-02-21T11:13:54.824Z,67.25
2017-02-21T11:14:55.349Z,66.48
2017-02-21T11:15:55.909Z,66.66
2017-02-21T11:16:56.419Z,65.89
2017-02-21T11:17:56.953Z,65.81
2017-02-21T11:18:57.491Z,65.83
2017-02-21T11:19:58.012Z,66.17
2017-02-21T11:20:58.542Z,66.33
2017-02-21T11:21:59.225Z,66.71
2017-02-21T11:22:59.610Z,66.45
2017-02-21T11:24:00.150Z,66.74
2017-02-21T11:25:00.834Z,66.79
2017-02-21T11:26:01.231Z,66.79
2017-02-21T11:27:01.906Z,66.37
2017-02-21T11:28:02.293Z,66.56
2017-02-21T11:29:03.118Z,66.74
2017-02-21T11:30:03.351Z,67.28
2017-02-21T11:31:03.886Z,67.20
2017-02-21T11:32:04.417Z,67.31
2017-02-21T11:33:04.945Z,66.64
2017-02-21T11:34:05.478Z,67.23
2017-02-21T11:35:06.159Z,67.05
2017-02-21T11:36:06.538Z,67.23
2017-02-21T11:37:07.072Z,67.60
2017-02-21T11:38:07.604Z,65.58
2017-02-21T11:39:08.131Z,67.25
2017-02-21T11:40:08.666Z,66.74
2017-02-21T11:41:09.201Z,67.62
2017-02-21T11:42:09.732Z,66.87
2017-02-21T11:43:10.260Z,67.25
2017-02-21T11:44:10.798Z,67.31
2017-02-21T11:45:11.325Z,67.80
2017-02-21T11:46:11.864Z,66.14
2017-02-21T11:47:12.402Z,66.84
2017-02-21T11:48:12.927Z,66.30
2017-02-21T11:49:13.453Z,65.39
2017-02-21T11:50:13.989Z,66.43
2017-02-21T11:51:14.526Z,65.62
2017-02-21T11:52:15.055Z,66.50
2017-02-21T11:53:15.596Z,66.22
2017-02-21T11:54:16.261Z,64.82
2017-02-21T11:55:16.648Z,65.16
2017-02-21T11:56:17.176Z,64.08
2017-02-21T11:57:17.715Z,64.00
2017-02-21T11:58:18.248Z,64.98
2017-02-21T11:59:18.780Z,64.67
2017-02-21T12:00:19.312Z,65.39
2017-02-21T12:01:19.840Z,66.43
2017-02-21T12:02:20.374Z,64.65
2017-02-21T12:03:20.901Z,64.00
2017-02-21T12:04:21.438Z,64.57
2017-02-21T12:05:21.974Z,64.10
2017-02-21T12:06:22.513Z,64.10
2017-02-21T12:07:23.053Z,63.59
2017-02-21T12:08:23.585Z,64.36
2017-02-21T12:09:24.129Z,63.59
2017-02-21T12:10:24.653Z,63.85
2017-02-21T12:11:25.184Z,64.15
2017-02-21T12:12:25.718Z,64.02
2017-02-21T12:13:26.250Z,63.56
2017-02-21T12:14:26.787Z,63.41
2017-02-21T12:15:27.318Z,63.41
2017-02-21T12:16:27.852Z,63.64
2017-02-21T12:17:28.375Z,62.04
2017-02-21T12:18:28.913Z,62.74
2017-02-21T12:19:29.442Z,62.43
2017-02-21T12:20:29.974Z,61.63
2017-02-21T12:21:30.501Z,62.33
2017-02-21T12:22:31.038Z,62.40
2017-02-21T12:23:31.569Z,62.87
2017-02-21T12:24:32.101Z,62.43
2017-02-21T12:25:32.631Z,61.89
2017-02-21T12:26:33.167Z,62.63
2017-02-21T12:27:33.698Z,61.25
2017-02-21T12:28:34.233Z,61.89
2017-02-21T12:29:34.760Z,60.81
2017-02-21T12:30:35.299Z,60.97
2017-02-21T12:31:35.830Z,62.02
2017-02-21T12:32:36.362Z,61.06
2017-02-21T12:33:37.043Z,61.66
2017-02-21T12:34:37.424Z,61.63
2017-02-21T12:35:37.950Z,61.22
2017-02-21T12:36:38.483Z,61.56
2017-02-21T12:37:39.022Z,61.48
2017-02-21T12:38:39.543Z,61.04
2017-02-21T12:39:40.088Z,60.66
2017-02-21T12:40:40.612Z,61.09
2017-02-21T12:41:41.141Z,61.66
2017-02-21T12:42:41.670Z,61.30
2017-02-21T12:43:42.202Z,61.66
2017-02-21T12:44:42.922Z,61.82
2017-02-21T12:45:43.265Z,61.30
2017-02-21T12:46:43.799Z,60.78
2017-02-21T12:47:44.480Z,61.76
2017-02-21T12:48:44.869Z,61.40
2017-02-21T12:49:45.412Z,61.50
2017-02-21T12:50:45.938Z,61.09
2017-02-21T12:51:46.465Z,61.33
2017-02-21T12:52:46.999Z,61.50
2017-02-21T12:53:47.580Z,60.68
2017-02-21T12:54:48.062Z,61.66
2017-02-21T12:55:48.597Z,62.10
2017-02-21T12:56:49.129Z,62.58
2017-02-21T12:57:49.660Z,62.40
2017-02-21T12:58:50.194Z,61.78
2017-02-21T12:59:50.724Z,61.38
2017-02-21T13:00:51.256Z,59.35
2017-02-21T13:01:51.791Z,61.35